sensor_id;sensor_type;location;lat;lon;timestamp;pressure;altitude;pressure_sealevel;temperature;humidity
58879;BME280;44660;42.664;23.266;2023-03-08T00:00:54;93715.19;;;7.87;49.84
58879;BME280;44660;42.664;23.266;2023-03-08T00:03:20;93697.47;;;7.65;49.81
58879;BME280;44660;42.664;23.266;2023-03-08T00:05:45;93720.69;;;7.80;50.01
58879;BME280;44660;42.664;23.266;2023-03-08T00:08:10;93717.00;;;7.81;49.96
58879;BME280;44660;42.664;23.266;2023-03-08T00:10:36;93720.94;;;7.79;50.03
58879;BME280;44660;42.664;23.266;2023-03-08T00:13:02;93682.88;;;7.63;50.08
58879;BME280;44660;42.664;23.266;2023-03-08T00:15:27;93726.03;;;7.85;50.06
58879;BME280;44660;42.664;23.266;2023-03-08T00:17:53;93700.84;;;7.61;50.08
58879;BME280;44660;42.664;23.266;2023-03-08T00:20:18;93736.69;;;7.68;50.32
58879;BME280;44660;42.664;23.266;2023-03-08T00:22:44;93714.56;;;7.58;50.50
58879;BME280;44660;42.664;23.266;2023-03-08T00:25:09;93730.03;;;7.49;51.03
58879;BME280;44660;42.664;23.266;2023-03-08T00:27:36;93703.31;;;7.28;50.94
58879;BME280;44660;42.664;23.266;2023-03-08T00:30:03;93712.84;;;7.29;51.35
58879;BME280;44660;42.664;23.266;2023-03-08T00:39:13;93732.22;;;7.35;51.91
58879;BME280;44660;42.664;23.266;2023-03-08T00:42:00;93727.44;;;7.32;52.07
58879;BME280;44660;42.664;23.266;2023-03-08T00:45:06;93717.16;;;7.35;51.73
58879;BME280;44660;42.664;23.266;2023-03-08T00:54:18;93696.03;;;6.84;52.77
58879;BME280;44660;42.664;23.266;2023-03-08T01:08:51;93686.81;;;6.70;53.04
58879;BME280;44660;42.664;23.266;2023-03-08T01:11:34;93683.06;;;6.66;53.00
58879;BME280;44660;42.664;23.266;2023-03-08T01:17:05;93719.50;;;6.98;53.02
58879;BME280;44660;42.664;23.266;2023-03-08T01:22:52;93736.31;;;6.75;53.69
58879;BME280;44660;42.664;23.266;2023-03-08T01:25:37;93703.53;;;6.59;53.54
58879;BME280;44660;42.664;23.266;2023-03-08T01:31:11;93704.69;;;6.63;53.63
58879;BME280;44660;42.664;23.266;2023-03-08T01:33:56;93736.72;;;6.83;53.83
58879;BME280;44660;42.664;23.266;2023-03-08T01:45:00;93727.38;;;6.47;54.26
58879;BME280;44660;42.664;23.266;2023-03-08T01:50:32;93731.94;;;6.23;55.31
58879;BME280;44660;42.664;23.266;2023-03-08T01:53:17;93732.63;;;6.30;55.10
58879;BME280;44660;42.664;23.266;2023-03-08T01:56:20;93730.06;;;6.35;54.93
58879;BME280;44660;42.664;23.266;2023-03-08T01:58:47;93730.06;;;6.35;55.18
58879;BME280;44660;42.664;23.266;2023-03-08T02:01:15;93732.03;;;6.28;55.36
58879;BME280;44660;42.664;23.266;2023-03-08T02:03:41;93724.16;;;6.16;55.59
58879;BME280;44660;42.664;23.266;2023-03-08T02:06:08;93681.41;;;5.90;55.62
58879;BME280;44660;42.664;23.266;2023-03-08T02:08:34;93736.09;;;6.18;55.80
58879;BME280;44660;42.664;23.266;2023-03-08T02:11:00;93732.91;;;5.93;56.56
58879;BME280;44660;42.664;23.266;2023-03-08T02:13:26;93737.84;;;6.01;56.34
58879;BME280;44660;42.664;23.266;2023-03-08T02:15:53;93737.25;;;6.11;56.16
58879;BME280;44660;42.664;23.266;2023-03-08T02:18:21;93706.91;;;5.84;56.25
58879;BME280;44660;42.664;23.266;2023-03-08T02:20:47;93737.63;;;6.02;56.32
58879;BME280;44660;42.664;23.266;2023-03-08T02:23:14;93736.13;;;5.95;56.57
58879;BME280;44660;42.664;23.266;2023-03-08T02:28:17;93738.19;;;5.93;56.60
58879;BME280;44660;42.664;23.266;2023-03-08T02:30:42;93735.78;;;5.91;56.99
58879;BME280;44660;42.664;23.266;2023-03-08T02:33:08;93734.19;;;5.78;56.91
58879;BME280;44660;42.664;23.266;2023-03-08T02:35:35;93672.34;;;5.33;57.09
58879;BME280;44660;42.664;23.266;2023-03-08T02:38:38;93733.72;;;5.93;57.07
58879;BME280;44660;42.664;23.266;2023-03-08T02:41:05;93710.59;;;5.71;56.98
58879;BME280;44660;42.664;23.266;2023-03-08T02:49:58;93734.53;;;5.70;57.39
58879;BME280;44660;42.664;23.266;2023-03-08T02:52:24;93739.81;;;5.82;57.21
58879;BME280;44660;42.664;23.266;2023-03-08T02:55:08;93746.13;;;5.81;57.39
58879;BME280;44660;42.664;23.266;2023-03-08T02:58:09;93746.59;;;5.66;57.75
58879;BME280;44660;42.664;23.266;2023-03-08T03:00:35;93766.44;;;5.80;57.44
58879;BME280;44660;42.664;23.266;2023-03-08T03:03:19;93761.25;;;5.73;57.86
58879;BME280;44660;42.664;23.266;2023-03-08T03:05:49;93768.84;;;5.70;57.89
58879;BME280;44660;42.664;23.266;2023-03-08T03:08:55;93776.44;;;5.66;57.94
58879;BME280;44660;42.664;23.266;2023-03-08T03:15:03;93772.06;;;5.48;58.64
58879;BME280;44660;42.664;23.266;2023-03-08T03:20:14;93767.59;;;5.37;58.87
58879;BME280;44660;42.664;23.266;2023-03-08T03:22:58;93780.91;;;5.54;58.50
58879;BME280;44660;42.664;23.266;2023-03-08T03:25:24;93761.06;;;5.39;58.50
58879;BME280;44660;42.664;23.266;2023-03-08T03:28:08;93777.94;;;5.38;58.86
58879;BME280;44660;42.664;23.266;2023-03-08T03:30:52;93780.88;;;5.42;58.84
58879;BME280;44660;42.664;23.266;2023-03-08T03:33:17;93784.69;;;5.46;58.97
58879;BME280;44660;42.664;23.266;2023-03-08T03:35:43;93776.88;;;5.39;59.11
58879;BME280;44660;42.664;23.266;2023-03-08T03:38:08;93778.91;;;5.26;59.17
58879;BME280;44660;42.664;23.266;2023-03-08T03:40:34;93778.72;;;5.27;59.75
58879;BME280;44660;42.664;23.266;2023-03-08T03:42:59;93790.16;;;5.21;59.93
58879;BME280;44660;42.664;23.266;2023-03-08T03:45:25;93760.91;;;4.99;59.82
58879;BME280;44660;42.664;23.266;2023-03-08T03:47:50;93715.97;;;4.82;59.61
58879;BME280;44660;42.664;23.266;2023-03-08T03:50:16;93786.84;;;5.26;59.74
58879;BME280;44660;42.664;23.266;2023-03-08T03:52:42;93780.66;;;5.20;59.69
58879;BME280;44660;42.664;23.266;2023-03-08T03:55:08;93791.53;;;5.35;59.58
58879;BME280;44660;42.664;23.266;2023-03-08T03:57:33;93786.28;;;5.35;59.70
58879;BME280;44660;42.664;23.266;2023-03-08T03:59:59;93758.88;;;5.25;59.69
58879;BME280;44660;42.664;23.266;2023-03-08T04:02:24;93784.22;;;5.37;59.64
58879;BME280;44660;42.664;23.266;2023-03-08T04:04:49;93784.34;;;5.31;59.90
58879;BME280;44660;42.664;23.266;2023-03-08T04:07:15;93788.56;;;5.20;59.77
58879;BME280;44660;42.664;23.266;2023-03-08T04:09:40;93792.69;;;5.28;59.73
58879;BME280;44660;42.664;23.266;2023-03-08T04:12:06;93781.13;;;5.17;59.94
58879;BME280;44660;42.664;23.266;2023-03-08T04:14:31;93795.09;;;5.17;60.00
58879;BME280;44660;42.664;23.266;2023-03-08T04:16:57;93804.72;;;5.23;59.98
58879;BME280;44660;42.664;23.266;2023-03-08T04:19:22;93797.13;;;5.15;59.98
58879;BME280;44660;42.664;23.266;2023-03-08T04:21:48;93788.19;;;5.16;60.00
58879;BME280;44660;42.664;23.266;2023-03-08T04:24:13;93799.47;;;5.23;60.02
58879;BME280;44660;42.664;23.266;2023-03-08T04:26:39;93807.47;;;5.29;59.94
58879;BME280;44660;42.664;23.266;2023-03-08T04:29:04;93803.06;;;4.99;60.40
58879;BME280;44660;42.664;23.266;2023-03-08T04:31:31;93753.75;;;4.64;60.48
58879;BME280;44660;42.664;23.266;2023-03-08T04:33:59;93801.44;;;4.86;61.02
58879;BME280;44660;42.664;23.266;2023-03-08T04:36:25;93806.41;;;5.06;60.88
58879;BME280;44660;42.664;23.266;2023-03-08T04:38:50;93806.16;;;4.96;61.17
58879;BME280;44660;42.664;23.266;2023-03-08T04:41:16;93801.38;;;5.04;60.76
58879;BME280;44660;42.664;23.266;2023-03-08T04:43:49;93813.78;;;5.16;60.69
58879;BME280;44660;42.664;23.266;2023-03-08T04:46:17;93805.50;;;5.12;60.67
58879;BME280;44660;42.664;23.266;2023-03-08T04:48:43;93776.28;;;5.02;60.77
58879;BME280;44660;42.664;23.266;2023-03-08T04:51:11;93794.19;;;5.23;60.50
58879;BME280;44660;42.664;23.266;2023-03-08T04:53:37;93802.56;;;5.32;60.41
58879;BME280;44660;42.664;23.266;2023-03-08T04:56:04;93806.69;;;5.40;60.64
58879;BME280;44660;42.664;23.266;2023-03-08T04:58:30;93796.69;;;5.18;60.74
58879;BME280;44660;42.664;23.266;2023-03-08T05:00:56;93820.31;;;5.37;60.22
58879;BME280;44660;42.664;23.266;2023-03-08T05:03:22;93827.31;;;5.43;60.36
58879;BME280;44660;42.664;23.266;2023-03-08T05:05:49;93835.22;;;5.43;60.33
58879;BME280;44660;42.664;23.266;2023-03-08T05:08:17;93797.25;;;5.09;60.34
58879;BME280;44660;42.664;23.266;2023-03-08T05:10:53;93822.28;;;5.30;60.56
58879;BME280;44660;42.664;23.266;2023-03-08T05:13:19;93849.91;;;5.39;60.65
58879;BME280;44660;42.664;23.266;2023-03-08T05:15:44;93843.00;;;5.26;60.73
58879;BME280;44660;42.664;23.266;2023-03-08T05:18:10;93859.97;;;5.30;60.83
58879;BME280;44660;42.664;23.266;2023-03-08T05:20:36;93814.91;;;5.08;60.76
58879;BME280;44660;42.664;23.266;2023-03-08T05:23:02;93852.06;;;5.42;60.64
58879;BME280;44660;42.664;23.266;2023-03-08T05:25:27;93779.22;;;4.94;60.46
58879;BME280;44660;42.664;23.266;2023-03-08T05:27:55;93853.00;;;5.36;60.46
58879;BME280;44660;42.664;23.266;2023-03-08T05:30:20;93864.16;;;5.62;60.43
58879;BME280;44660;42.664;23.266;2023-03-08T05:32:45;93868.16;;;5.64;60.17
58879;BME280;44660;42.664;23.266;2023-03-08T05:35:11;93798.84;;;5.10;60.44
58879;BME280;44660;42.664;23.266;2023-03-08T05:37:36;93877.66;;;5.53;60.65
58879;BME280;44660;42.664;23.266;2023-03-08T05:40:02;93853.13;;;5.41;60.41
58879;BME280;44660;42.664;23.266;2023-03-08T05:42:31;93872.50;;;5.59;60.33
58879;BME280;44660;42.664;23.266;2023-03-08T05:44:56;93887.53;;;5.70;60.24
58879;BME280;44660;42.664;23.266;2023-03-08T05:47:22;93868.72;;;5.54;60.66
58879;BME280;44660;42.664;23.266;2023-03-08T05:49:47;93821.31;;;5.12;61.04
58879;BME280;44660;42.664;23.266;2023-03-08T05:52:13;93862.16;;;5.33;61.71
58879;BME280;44660;42.664;23.266;2023-03-08T05:54:38;93854.47;;;5.32;61.50
58879;BME280;44660;42.664;23.266;2023-03-08T05:57:04;93888.44;;;5.52;61.22
58879;BME280;44660;42.664;23.266;2023-03-08T05:59:30;93884.47;;;5.61;61.28
58879;BME280;44660;42.664;23.266;2023-03-08T06:01:55;93893.28;;;5.67;60.99
58879;BME280;44660;42.664;23.266;2023-03-08T06:04:21;93879.88;;;5.68;60.96
58879;BME280;44660;42.664;23.266;2023-03-08T06:06:47;93887.53;;;5.70;61.06
58879;BME280;44660;42.664;23.266;2023-03-08T06:09:12;93912.09;;;5.82;61.04
58879;BME280;44660;42.664;23.266;2023-03-08T06:11:38;93891.56;;;5.61;61.13
58879;BME280;44660;42.664;23.266;2023-03-08T06:14:03;93898.13;;;5.82;60.74
58879;BME280;44660;42.664;23.266;2023-03-08T06:16:28;93907.97;;;5.86;60.82
58879;BME280;44660;42.664;23.266;2023-03-08T06:18:54;93896.97;;;5.89;60.46
58879;BME280;44660;42.664;23.266;2023-03-08T06:21:20;93909.41;;;6.01;60.20
58879;BME280;44660;42.664;23.266;2023-03-08T06:23:46;93881.41;;;6.00;59.92
58879;BME280;44660;42.664;23.266;2023-03-08T06:26:12;93907.00;;;6.11;60.39
58879;BME280;44660;42.664;23.266;2023-03-08T06:28:38;93906.28;;;6.28;60.01
58879;BME280;44660;42.664;23.266;2023-03-08T06:31:09;93898.63;;;6.26;59.73
58879;BME280;44660;42.664;23.266;2023-03-08T06:33:36;93918.31;;;6.47;59.43
58879;BME280;44660;42.664;23.266;2023-03-08T06:36:07;93913.03;;;6.59;58.61
58879;BME280;44660;42.664;23.266;2023-03-08T06:38:35;93897.66;;;6.44;58.69
58879;BME280;44660;42.664;23.266;2023-03-08T06:41:01;93907.31;;;6.27;59.42
58879;BME280;44660;42.664;23.266;2023-03-08T06:43:27;93925.22;;;6.48;58.98
58879;BME280;44660;42.664;23.266;2023-03-08T06:45:53;93925.69;;;6.45;58.95
58879;BME280;44660;42.664;23.266;2023-03-08T06:48:19;93935.28;;;6.63;58.85
58879;BME280;44660;42.664;23.266;2023-03-08T06:50:44;93929.91;;;6.58;58.48
58879;BME280;44660;42.664;23.266;2023-03-08T06:53:11;93944.56;;;6.78;58.27
58879;BME280;44660;42.664;23.266;2023-03-08T06:55:38;93954.75;;;6.98;57.84
58879;BME280;44660;42.664;23.266;2023-03-08T06:58:04;93957.72;;;7.01;57.73
58879;BME280;44660;42.664;23.266;2023-03-08T07:00:30;93951.31;;;6.97;58.04
58879;BME280;44660;42.664;23.266;2023-03-08T07:02:55;93956.56;;;7.09;57.64
58879;BME280;44660;42.664;23.266;2023-03-08T07:05:21;93940.88;;;7.19;57.36
58879;BME280;44660;42.664;23.266;2023-03-08T07:07:47;93911.69;;;7.14;57.20
58879;BME280;44660;42.664;23.266;2023-03-08T07:10:13;93960.00;;;7.67;56.81
58879;BME280;44660;42.664;23.266;2023-03-08T07:12:40;93948.88;;;7.82;55.84
58879;BME280;44660;42.664;23.266;2023-03-08T07:15:11;93963.13;;;7.98;55.35
58879;BME280;44660;42.664;23.266;2023-03-08T07:17:39;93948.88;;;7.82;55.56
58879;BME280;44660;42.664;23.266;2023-03-08T07:20:05;93960.03;;;8.01;55.45
58879;BME280;44660;42.664;23.266;2023-03-08T07:22:31;93972.50;;;8.40;54.62
58879;BME280;44660;42.664;23.266;2023-03-08T07:24:57;93967.38;;;8.68;53.86
58879;BME280;44660;42.664;23.266;2023-03-08T07:27:23;93970.47;;;8.81;53.40
58879;BME280;44660;42.664;23.266;2023-03-08T07:29:49;93966.78;;;9.27;52.34
58879;BME280;44660;42.664;23.266;2023-03-08T07:32:14;93962.41;;;9.65;51.42
58879;BME280;44660;42.664;23.266;2023-03-08T07:34:40;93954.66;;;9.91;50.46
58879;BME280;44660;42.664;23.266;2023-03-08T07:37:13;93965.50;;;10.17;49.73
58879;BME280;44660;42.664;23.266;2023-03-08T07:39:39;93948.59;;;10.33;49.14
58879;BME280;44660;42.664;23.266;2023-03-08T07:42:05;93959.38;;;10.49;48.75
58879;BME280;44660;42.664;23.266;2023-03-08T07:44:30;93965.34;;;10.71;48.36
58879;BME280;44660;42.664;23.266;2023-03-08T07:46:55;93935.66;;;10.85;47.90
58879;BME280;44660;42.664;23.266;2023-03-08T07:49:21;93946.66;;;11.09;47.40
58879;BME280;44660;42.664;23.266;2023-03-08T07:51:48;93964.97;;;11.00;46.63
58879;BME280;44660;42.664;23.266;2023-03-08T07:54:15;93961.88;;;11.19;46.35
58879;BME280;44660;42.664;23.266;2023-03-08T07:56:40;93959.00;;;11.41;46.09
58879;BME280;44660;42.664;23.266;2023-03-08T07:59:06;93926.75;;;11.27;45.99
58879;BME280;44660;42.664;23.266;2023-03-08T08:01:31;93962.53;;;11.67;45.63
58879;BME280;44660;42.664;23.266;2023-03-08T08:03:58;93960.66;;;11.68;45.07
58879;BME280;44660;42.664;23.266;2023-03-08T08:06:24;93961.44;;;11.53;45.32
58879;BME280;44660;42.664;23.266;2023-03-08T08:08:49;93946.63;;;12.19;44.24
58879;BME280;44660;42.664;23.266;2023-03-08T08:11:16;93945.81;;;13.35;41.73
58879;BME280;44660;42.664;23.266;2023-03-08T08:13:44;93959.31;;;14.10;40.44
58879;BME280;44660;42.664;23.266;2023-03-08T08:16:11;93949.28;;;14.90;38.21
58879;BME280;44660;42.664;23.266;2023-03-08T08:18:36;93964.75;;;14.93;38.35
58879;BME280;44660;42.664;23.266;2023-03-08T08:21:07;93966.34;;;14.94;38.14
58879;BME280;44660;42.664;23.266;2023-03-08T08:23:34;93967.69;;;14.67;38.51
58879;BME280;44660;42.664;23.266;2023-03-08T08:26:04;93960.22;;;15.17;37.74
58879;BME280;44660;42.664;23.266;2023-03-08T08:28:30;93967.44;;;15.60;36.48
58879;BME280;44660;42.664;23.266;2023-03-08T08:31:02;93962.16;;;18.63;32.38
58879;BME280;44660;42.664;23.266;2023-03-08T08:33:31;93960.81;;;22.54;26.74
58879;BME280;44660;42.664;23.266;2023-03-08T08:35:57;93954.09;;;25.63;23.32
58879;BME280;44660;42.664;23.266;2023-03-08T08:38:23;93943.56;;;27.57;20.95
58879;BME280;44660;42.664;23.266;2023-03-08T08:40:49;93925.19;;;27.08;20.26
58879;BME280;44660;42.664;23.266;2023-03-08T08:43:14;93947.25;;;26.40;20.88
58879;BME280;44660;42.664;23.266;2023-03-08T08:45:48;93942.81;;;26.51;21.20
58879;BME280;44660;42.664;23.266;2023-03-08T08:48:17;93946.22;;;27.07;20.75
58879;BME280;44660;42.664;23.266;2023-03-08T08:50:42;93916.66;;;25.75;21.63
58879;BME280;44660;42.664;23.266;2023-03-08T08:53:08;93929.28;;;24.31;23.08
58879;BME280;44660;42.664;23.266;2023-03-08T08:55:34;93944.22;;;23.59;23.79
58879;BME280;44660;42.664;23.266;2023-03-08T08:58:01;93933.84;;;23.03;23.98
58879;BME280;44660;42.664;23.266;2023-03-08T09:00:27;93921.25;;;22.19;25.66
58879;BME280;44660;42.664;23.266;2023-03-08T09:02:53;93943.97;;;21.84;25.51
58879;BME280;44660;42.664;23.266;2023-03-08T09:05:18;93949.59;;;21.02;26.43
58879;BME280;44660;42.664;23.266;2023-03-08T09:07:44;93953.16;;;20.50;27.54
58879;BME280;44660;42.664;23.266;2023-03-08T09:10:10;93918.09;;;19.88;27.94
58879;BME280;44660;42.664;23.266;2023-03-08T09:12:36;93951.09;;;19.85;28.23
58879;BME280;44660;42.664;23.266;2023-03-08T09:15:02;93949.53;;;19.35;29.15
58879;BME280;44660;42.664;23.266;2023-03-08T09:17:28;93947.97;;;19.03;29.80
58879;BME280;44660;42.664;23.266;2023-03-08T09:19:54;93945.22;;;18.17;30.80
58879;BME280;44660;42.664;23.266;2023-03-08T09:22:20;93944.78;;;17.87;31.06
58879;BME280;44660;42.664;23.266;2023-03-08T09:24:47;93936.56;;;17.70;31.42
58879;BME280;44660;42.664;23.266;2023-03-08T09:27:13;93946.13;;;18.58;30.35
58879;BME280;44660;42.664;23.266;2023-03-08T09:29:38;93939.19;;;18.88;30.21
58879;BME280;44660;42.664;23.266;2023-03-08T09:32:04;93940.06;;;19.47;29.82
58879;BME280;44660;42.664;23.266;2023-03-08T09:34:30;93921.56;;;19.14;29.52
58879;BME280;44660;42.664;23.266;2023-03-08T09:36:56;93863.59;;;18.85;29.72
58879;BME280;44660;42.664;23.266;2023-03-08T09:39:21;93898.09;;;20.25;28.31
58879;BME280;44660;42.664;23.266;2023-03-08T09:41:53;93921.53;;;22.47;25.47
58879;BME280;44660;42.664;23.266;2023-03-08T09:49:51;93896.66;;;27.75;19.73
58879;BME280;44660;42.664;23.266;2023-03-08T09:52:27;93912.19;;;27.97;19.30
58879;BME280;44660;42.664;23.266;2023-03-08T09:55:01;93908.97;;;28.83;18.59
58879;BME280;44660;42.664;23.266;2023-03-08T09:57:34;93895.22;;;29.17;17.78
58879;BME280;44660;42.664;23.266;2023-03-08T10:00:04;93886.28;;;29.24;18.07
58879;BME280;44660;42.664;23.266;2023-03-08T10:02:46;93873.19;;;29.44;17.83
58879;BME280;44660;42.664;23.266;2023-03-08T10:05:27;93890.44;;;28.69;18.02
58879;BME280;44660;42.664;23.266;2023-03-08T10:08:22;93861.56;;;28.38;18.61
58879;BME280;44660;42.664;23.266;2023-03-08T10:13:33;93890.75;;;30.80;16.41
58879;BME280;44660;42.664;23.266;2023-03-08T10:16:20;93869.91;;;29.83;16.83
58879;BME280;44660;42.664;23.266;2023-03-08T10:21:36;93875.81;;;30.66;16.63
58879;BME280;44660;42.664;23.266;2023-03-08T10:26:41;93852.88;;;30.15;16.95
58879;BME280;44660;42.664;23.266;2023-03-08T10:29:10;93857.34;;;30.52;15.37
58879;BME280;44660;42.664;23.266;2023-03-08T10:31:36;93855.16;;;31.26;14.48
58879;BME280;44660;42.664;23.266;2023-03-08T10:34:12;93867.94;;;30.57;15.37
58879;BME280;44660;42.664;23.266;2023-03-08T10:39:17;93872.28;;;28.88;16.14
58879;BME280;44660;42.664;23.266;2023-03-08T10:41:46;93877.44;;;27.21;17.57
58879;BME280;44660;42.664;23.266;2023-03-08T10:44:26;93851.84;;;25.14;19.02
58879;BME280;44660;42.664;23.266;2023-03-08T10:46:53;93865.69;;;24.32;19.95
58879;BME280;44660;42.664;23.266;2023-03-08T10:49:18;93843.47;;;23.73;20.56
58879;BME280;44660;42.664;23.266;2023-03-08T10:51:55;93860.72;;;23.40;20.95
58879;BME280;44660;42.664;23.266;2023-03-08T10:54:21;93861.56;;;22.82;22.22
58879;BME280;44660;42.664;23.266;2023-03-08T10:56:56;93858.53;;;22.38;22.90
58879;BME280;44660;42.664;23.266;2023-03-08T11:04:37;93843.88;;;20.74;24.25
58879;BME280;44660;42.664;23.266;2023-03-08T11:07:10;93845.50;;;20.96;24.35
58879;BME280;44660;42.664;23.266;2023-03-08T11:09:44;93841.88;;;20.92;24.64
58879;BME280;44660;42.664;23.266;2023-03-08T11:12:24;93827.00;;;20.68;24.84
58879;BME280;44660;42.664;23.266;2023-03-08T11:14:50;93797.84;;;20.52;25.15
58879;BME280;44660;42.664;23.266;2023-03-08T11:20:02;93817.09;;;20.42;25.74
58879;BME280;44660;42.664;23.266;2023-03-08T11:22:37;93822.19;;;20.35;26.06
58879;BME280;44660;42.664;23.266;2023-03-08T11:31:00;93797.50;;;20.06;26.28
58879;BME280;44660;42.664;23.266;2023-03-08T11:33:44;93792.72;;;20.12;26.08
58879;BME280;44660;42.664;23.266;2023-03-08T11:44:24;93784.81;;;19.63;26.37
58879;BME280;44660;42.664;23.266;2023-03-08T11:47:34;93780.38;;;19.58;26.85
58879;BME280;44660;42.664;23.266;2023-03-08T11:53:03;93786.41;;;19.38;26.37
58879;BME280;44660;42.664;23.266;2023-03-08T11:58:32;93772.28;;;19.50;26.88
58879;BME280;44660;42.664;23.266;2023-03-08T12:01:01;93774.81;;;19.81;26.37
58879;BME280;44660;42.664;23.266;2023-03-08T12:03:34;93769.41;;;19.99;26.28
58879;BME280;44660;42.664;23.266;2023-03-08T12:06:45;93761.41;;;20.20;25.57
58879;BME280;44660;42.664;23.266;2023-03-08T12:09:27;93767.84;;;20.45;25.51
58879;BME280;44660;42.664;23.266;2023-03-08T12:12:16;93763.28;;;20.67;25.13
58879;BME280;44660;42.664;23.266;2023-03-08T12:14:54;93764.31;;;20.92;25.17
58879;BME280;44660;42.664;23.266;2023-03-08T12:17:26;93762.22;;;20.98;25.06
58879;BME280;44660;42.664;23.266;2023-03-08T12:19:53;93756.16;;;21.01;25.12
58879;BME280;44660;42.664;23.266;2023-03-08T12:25:27;93773.31;;;20.75;25.34
58879;BME280;44660;42.664;23.266;2023-03-08T12:33:16;93777.66;;;20.88;25.25
58879;BME280;44660;42.664;23.266;2023-03-08T12:36:04;93769.56;;;20.88;24.67
58879;BME280;44660;42.664;23.266;2023-03-08T12:38:42;93775.34;;;20.78;24.21
58879;BME280;44660;42.664;23.266;2023-03-08T12:41:30;93772.13;;;20.46;24.57
58879;BME280;44660;42.664;23.266;2023-03-08T12:46:50;93763.41;;;20.49;24.91
58879;BME280;44660;42.664;23.266;2023-03-08T12:49:32;93765.78;;;20.42;24.99
58879;BME280;44660;42.664;23.266;2023-03-08T12:52:05;93760.03;;;20.14;24.81
58879;BME280;44660;42.664;23.266;2023-03-08T12:54:33;93744.66;;;20.05;25.36
58879;BME280;44660;42.664;23.266;2023-03-08T12:57:01;93755.38;;;20.23;25.19
58879;BME280;44660;42.664;23.266;2023-03-08T12:59:31;93755.94;;;19.99;25.94
58879;BME280;44660;42.664;23.266;2023-03-08T13:01:59;93760.63;;;20.19;25.42
58879;BME280;44660;42.664;23.266;2023-03-08T13:04:38;93751.22;;;20.34;25.38
58879;BME280;44660;42.664;23.266;2023-03-08T13:07:17;93730.88;;;20.37;25.49
58879;BME280;44660;42.664;23.266;2023-03-08T13:09:55;93748.06;;;20.23;25.23
58879;BME280;44660;42.664;23.266;2023-03-08T13:12:49;93750.78;;;20.15;25.81
58879;BME280;44660;42.664;23.266;2023-03-08T13:15:22;93741.34;;;20.00;25.74
58879;BME280;44660;42.664;23.266;2023-03-08T13:17:57;93740.88;;;19.71;26.23
58879;BME280;44660;42.664;23.266;2023-03-08T13:20:40;93732.50;;;19.20;26.25
58879;BME280;44660;42.664;23.266;2023-03-08T13:28:34;93730.91;;;19.54;26.25
58879;BME280;44660;42.664;23.266;2023-03-08T13:31:02;93735.97;;;19.47;25.96
58879;BME280;44660;42.664;23.266;2023-03-08T13:33:32;93738.84;;;19.51;26.49
58879;BME280;44660;42.664;23.266;2023-03-08T13:36:03;93727.09;;;19.55;26.02
58879;BME280;44660;42.664;23.266;2023-03-08T13:38:32;93664.38;;;18.93;26.15
58879;BME280;44660;42.664;23.266;2023-03-08T13:40:58;93715.69;;;19.41;25.83
58879;BME280;44660;42.664;23.266;2023-03-08T13:43:29;93732.50;;;19.38;26.07
58879;BME280;44660;42.664;23.266;2023-03-08T13:45:58;93728.38;;;19.23;26.06
58879;BME280;44660;42.664;23.266;2023-03-08T13:48:27;93719.00;;;18.94;26.74
58879;BME280;44660;42.664;23.266;2023-03-08T13:50:53;93734.66;;;18.83;26.87
58879;BME280;44660;42.664;23.266;2023-03-08T13:53:22;93729.50;;;18.47;27.45
58879;BME280;44660;42.664;23.266;2023-03-08T13:55:50;93736.50;;;18.16;27.99
58879;BME280;44660;42.664;23.266;2023-03-08T13:58:43;93732.19;;;18.06;27.96
58879;BME280;44660;42.664;23.266;2023-03-08T14:01:18;93724.69;;;17.72;28.51
58879;BME280;44660;42.664;23.266;2023-03-08T14:03:45;93728.97;;;17.73;28.85
58879;BME280;44660;42.664;23.266;2023-03-08T14:06:29;93737.53;;;17.52;29.41
58879;BME280;44660;42.664;23.266;2023-03-08T14:08:58;93726.44;;;17.45;29.37
58879;BME280;44660;42.664;23.266;2023-03-08T14:11:28;93716.72;;;17.35;29.47
58879;BME280;44660;42.664;23.266;2023-03-08T14:13:56;93711.97;;;16.95;30.31
58879;BME280;44660;42.664;23.266;2023-03-08T14:16:34;93738.00;;;16.95;30.65
58879;BME280;44660;42.664;23.266;2023-03-08T14:21:47;93664.66;;;16.21;31.11
58879;BME280;44660;42.664;23.266;2023-03-08T14:24:18;93732.97;;;16.65;30.96
58879;BME280;44660;42.664;23.266;2023-03-08T14:26:56;93720.28;;;16.43;31.61
58879;BME280;44660;42.664;23.266;2023-03-08T14:29:32;93745.00;;;16.54;31.21
58879;BME280;44660;42.664;23.266;2023-03-08T14:34:30;93692.75;;;16.10;31.92
58879;BME280;44660;42.664;23.266;2023-03-08T14:37:26;93712.91;;;16.35;31.41
58879;BME280;44660;42.664;23.266;2023-03-08T14:39:54;93720.09;;;16.26;31.94
58879;BME280;44660;42.664;23.266;2023-03-08T14:42:26;93699.72;;;16.11;31.63
58879;BME280;44660;42.664;23.266;2023-03-08T14:44:57;93706.13;;;15.82;31.82
58879;BME280;44660;42.664;23.266;2023-03-08T14:47:28;93718.56;;;15.59;32.45
58879;BME280;44660;42.664;23.266;2023-03-08T14:52:29;93736.84;;;15.57;32.40
58879;BME280;44660;42.664;23.266;2023-03-08T14:54:54;93696.72;;;15.38;32.67
58879;BME280;44660;42.664;23.266;2023-03-08T14:57:27;93737.34;;;15.59;32.43
58879;BME280;44660;42.664;23.266;2023-03-08T14:59:59;93738.84;;;15.65;32.45
58879;BME280;44660;42.664;23.266;2023-03-08T15:02:26;93736.53;;;15.58;32.72
58879;BME280;44660;42.664;23.266;2023-03-08T15:04:52;93713.34;;;15.34;32.95
58879;BME280;44660;42.664;23.266;2023-03-08T15:07:20;93688.13;;;15.22;32.83
58879;BME280;44660;42.664;23.266;2023-03-08T15:09:48;93749.50;;;15.51;33.04
58879;BME280;44660;42.664;23.266;2023-03-08T15:12:14;93744.91;;;15.38;33.36
58879;BME280;44660;42.664;23.266;2023-03-08T15:14:39;93747.66;;;15.32;33.50
58879;BME280;44660;42.664;23.266;2023-03-08T15:17:05;93734.25;;;15.32;33.70
58879;BME280;44660;42.664;23.266;2023-03-08T15:19:31;93731.25;;;15.20;33.82